TimeEST,TemperatureF,Dew PointF,Humidity,Sea Level PressureIn,VisibilityMPH,Wind Direction,Wind SpeedMPH,Gust SpeedMPH,PrecipitationIn,Events,Conditions,WindDirDegrees,DateUTC
12:54 AM,45.0,36.0,71,30.03,10.0,West,12.7,-,N/A,,Partly Cloudy,280,2013-11-10 05:54:00
1:54 AM,44.1,35.1,71,30.04,10.0,West,13.8,-,N/A,,Partly Cloudy,270,2013-11-10 06:54:00
2:54 AM,43.0,28.0,56,30.06,10.0,West,21.9,29.9,N/A,,Partly Cloudy,280,2013-11-10 07:54:00
3:54 AM,41.0,26.1,55,30.08,10.0,West,15.0,26.5,N/A,,Partly Cloudy,280,2013-11-10 08:54:00
4:54 AM,39.0,25.0,57,30.11,10.0,West,16.1,23.0,N/A,,Scattered Clouds,280,2013-11-10 09:54:00
5:54 AM,37.9,25.0,60,30.14,10.0,West,16.1,-,N/A,,Scattered Clouds,270,2013-11-10 10:54:00
6:54 AM,36.0,26.1,67,30.17,10.0,West,16.1,23.0,N/A,,Partly Cloudy,270,2013-11-10 11:54:00
7:54 AM,36.0,27.0,70,30.21,10.0,West,10.4,-,N/A,,Scattered Clouds,270,2013-11-10 12:54:00
8:54 AM,39.0,28.9,67,30.24,10.0,West,17.3,-,N/A,,Scattered Clouds,260,2013-11-10 13:54:00
9:54 AM,42.1,28.9,60,30.26,10.0,West,15.0,23.0,N/A,,Scattered Clouds,280,2013-11-10 14:54:00
10:54 AM,42.1,28.9,60,30.29,10.0,WNW,15.0,21.9,N/A,,Mostly Cloudy,290,2013-11-10 15:54:00
11:54 AM,45.0,28.9,53,30.30,10.0,NW,15.0,20.7,N/A,,Mostly Cloudy,310,2013-11-10 16:54:00
12:54 PM,45.0,28.9,53,30.29,10.0,WNW,11.5,20.7,N/A,,Mostly Cloudy,300,2013-11-10 17:54:00
1:54 PM,48.0,30.0,50,30.30,10.0,NW,13.8,21.9,N/A,,Mostly Cloudy,310,2013-11-10 18:54:00
2:54 PM,46.9,30.0,52,30.31,10.0,WNW,11.5,-,N/A,,Mostly Cloudy,290,2013-11-10 19:54:00
3:54 PM,46.9,28.9,50,30.31,10.0,NW,10.4,18.4,N/A,,Scattered Clouds,310,2013-11-10 20:54:00
4:54 PM,45.0,30.0,56,30.33,10.0,WNW,8.1,-,N/A,,Partly Cloudy,290,2013-11-10 21:54:00
5:54 PM,37.9,30.0,73,30.34,10.0,West,6.9,-,N/A,,Scattered Clouds,280,2013-11-10 22:54:00
6:54 PM,34.0,28.0,79,30.35,10.0,West,4.6,-,N/A,,Clear,280,2013-11-10 23:54:00
7:54 PM,35.1,28.0,76,30.34,10.0,SW,3.5,-,N/A,,Clear,230,2013-11-11 00:54:00
8:54 PM,30.9,26.1,82,30.34,10.0,SSW,5.8,-,N/A,,Clear,210,2013-11-11 01:54:00
9:54 PM,30.0,26.1,85,30.32,10.0,South,6.9,-,N/A,,Clear,180,2013-11-11 02:54:00
10:54 PM,30.0,26.1,85,30.32,10.0,SW,5.8,-,N/A,,Partly Cloudy,230,2013-11-11 03:54:00
11:54 PM,33.1,28.9,85,30.30,10.0,SSW,8.1,-,N/A,,Mostly Cloudy,200,2013-11-11 04:54:00